Time;durP1;ratioP1;P1;durP2;ratioP2;P2;SDS_P1;SDS_P2;PMS_P1;PMS_P2;Temp;Humidity;BMP_temperature;BMP_pressure;BME280_temperature;BME280_humidity;BME280_pressure;Samples;Min_cycle;Max_cycle;Signal;HPM_P1;HPM_P2
2024/01/20 00:02:39;;;;;;;3.33;2.63;;;;;;;17.14;32.99;97475.75;10365570;28;20160;-31
2024/01/20 00:07:39;;;;;;;4.18;3.08;;;;;;;17.13;33.77;97458.84;10366625;28;20044;-30
2024/01/20 00:12:42;;;;;;;3.60;3.13;;;;;;;17.15;35.13;97449.63;10364653;28;20042;-30
2024/01/20 00:17:42;;;;;;;4.30;2.90;;;;;;;17.17;34.57;97440.38;10364838;28;20030;-30
2024/01/20 00:22:43;;;;;;;4.60;2.60;;;;;;;17.19;35.23;97451.38;10365413;28;20414;-31
2024/01/20 00:27:43;;;;;;;4.53;2.65;;;;;;;17.15;34.42;97449.63;10364803;28;20033;-31
2024/01/20 00:32:43;;;;;;;5.47;3.10;;;;;;;17.15;34.82;97473.22;10364391;28;20227;-30
2024/01/20 00:37:44;;;;;;;3.40;2.17;;;;;;;17.17;33.03;97460.63;10365843;28;20022;-30
2024/01/20 00:42:45;;;;;;;2.83;2.50;;;;;;;17.16;32.21;97469.88;10363829;28;20048;-30
2024/01/20 00:47:45;;;;;;;3.77;2.57;;;;;;;17.11;31.75;97460.50;10364139;28;20401;-31
2024/01/20 00:52:48;;;;;;;4.35;2.70;;;;;;;17.12;31.65;97462.22;10364668;28;20418;-32
2024/01/20 00:57:48;;;;;;;3.35;2.38;;;;;;;17.14;31.96;97455.53;10363682;28;20030;-30
2024/01/20 01:02:48;;;;;;;3.70;2.20;;;;;;;17.16;32.50;97451.34;10362643;28;20549;-30
2024/01/20 01:07:51;;;;;;;3.23;2.50;;;;;;;17.17;32.18;97460.63;10364230;28;20537;-30
2024/01/20 01:12:52;;;;;;;3.15;2.53;;;;;;;17.16;32.60;97463.97;10361984;28;20121;-30
2024/01/20 01:17:52;;;;;;;3.42;2.58;;;;;;;17.15;32.74;97467.34;10362503;28;20038;-30
2024/01/20 01:22:53;;;;;;;3.20;2.20;;;;;;;17.18;33.16;97478.38;10363172;28;20033;-32
2024/01/20 01:27:53;;;;;;;3.75;2.50;;;;;;;17.12;34.28;97469.81;10362452;28;20036;-31
2024/01/20 01:32:53;;;;;;;3.57;2.57;;;;;;;17.17;33.72;97490.97;10362306;28;20069;-31
2024/01/20 01:37:54;;;;;;;2.70;2.20;;;;;;;17.15;33.23;97520.47;10363488;28;20033;-30
2024/01/20 01:42:56;;;;;;;3.53;2.20;;;;;;;17.13;34.58;97517.03;10361677;28;20285;-31
2024/01/20 01:47:57;;;;;;;2.88;1.90;;;;;;;17.13;34.89;97535.63;10361610;28;20536;-31
2024/01/20 01:52:58;;;;;;;4.40;2.63;;;;;;;17.11;35.31;97533.88;10362404;28;20100;-30
2024/01/20 01:58:00;;;;;;;4.38;2.17;;;;;;;17.13;34.61;97538.16;10361270;28;20862;-32
2024/01/20 02:03:01;;;;;;;3.22;2.08;;;;;;;17.10;34.64;97532.19;10358535;28;20461;-30
2024/01/20 02:08:02;;;;;;;4.43;2.13;;;;;;;17.11;32.91;97526.28;10361627;28;20037;-30
2024/01/20 02:13:03;;;;;;;3.28;2.58;;;;;;;17.13;33.33;97525.50;10360946;28;20529;-31
2024/01/20 02:18:03;;;;;;;4.57;2.05;;;;;;;17.12;33.48;97528.00;10360530;28;20033;-30
2024/01/20 02:23:04;;;;;;;1.92;1.60;;;;;;;17.15;32.38;97518.78;10367176;28;20033;-30
2024/01/20 02:28:04;;;;;;;2.65;1.95;;;;;;;17.16;32.26;97524.72;10369520;28;20076;-31
2024/01/20 02:33:05;;;;;;;3.20;2.00;;;;;;;17.15;33.37;97515.41;10368712;28;20046;-31
2024/01/20 02:38:05;;;;;;;2.07;1.40;;;;;;;17.16;33.79;97524.72;10369392;28;20520;-30
2024/01/20 02:43:05;;;;;;;2.87;1.57;;;;;;;17.14;33.28;97517.06;10367939;28;20299;-30
2024/01/20 02:48:06;;;;;;;1.90;1.70;;;;;;;17.12;34.79;97526.31;10367002;28;20042;-31
2024/01/20 02:53:06;;;;;;;3.53;1.58;;;;;;;17.10;34.63;97527.13;10369367;28;20034;-30
2024/01/20 02:58:07;;;;;;;2.63;1.90;;;;;;;17.06;32.81;97522.84;10368330;28;20170;-30
2024/01/20 03:03:07;;;;;;;4.47;1.92;;;;;;;17.06;33.63;97532.97;10362373;28;20034;-30
2024/01/20 03:08:07;;;;;;;2.87;1.47;;;;;;;17.08;33.17;97528.78;10368833;28;20497;-30
2024/01/20 03:13:08;;;;;;;2.27;1.33;;;;;;;17.09;33.65;97530.47;10367666;28;20052;-30
2024/01/20 03:18:10;;;;;;;2.50;1.83;;;;;;;17.09;32.55;97531.31;10366958;28;20288;-31
2024/01/20 03:23:13;;;;;;;2.78;1.70;;;;;;;17.08;33.17;97538.91;10367589;28;20042;-30
2024/01/20 03:28:13;;;;;;;3.33;1.95;;;;;;;17.05;34.55;97531.22;10360595;28;20033;-31
2024/01/20 03:33:13;;;;;;;2.00;1.57;;;;;;;17.10;33.46;97542.31;10366008;28;20457;-32
2024/01/20 03:38:14;;;;;;;2.73;1.57;;;;;;;17.07;35.20;97540.56;10363937;28;20288;-31
2024/01/20 03:43:14;;;;;;;2.47;1.60;;;;;;;17.08;33.60;97523.72;10367667;28;20108;-31
2024/01/20 03:48:15;;;;;;;2.03;1.63;;;;;;;17.10;35.56;97528.00;10365702;28;20297;-30
2024/01/20 03:53:15;;;;;;;1.92;1.45;;;;;;;17.09;34.14;97527.94;10366613;28;20716;-30
2024/01/20 03:58:15;;;;;;;3.20;1.80;;;;;;;17.12;33.30;97528.00;10365463;28;20042;-31
2024/01/20 04:03:16;;;;;;;2.40;1.80;;;;;;;17.11;33.01;97531.34;10365050;28;20038;-30
2024/01/20 04:08:16;;;;;;;2.30;1.83;;;;;;;17.11;32.28;97547.41;10364903;28;20096;-31
2024/01/20 04:13:16;;;;;;;2.83;2.20;;;;;;;17.11;32.19;97546.53;10365342;28;20045;-30
2024/01/20 04:18:17;;;;;;;2.13;1.53;;;;;;;16.97;31.66;97533.63;10364628;28;20288;-31
2024/01/20 04:23:17;;;;;;;2.63;1.70;;;;;;;17.10;33.43;97560.00;10365046;28;20301;-31
2024/01/20 04:28:17;;;;;;;2.20;1.73;;;;;;;17.11;32.15;97566.78;10364055;28;20033;-32
2024/01/20 04:33:20;;;;;;;3.03;1.70;;;;;;;17.09;33.10;97555.78;10364192;28;20042;-30
2024/01/20 04:38:21;;;;;;;2.35;1.55;;;;;;;17.09;32.67;97553.25;10365000;28;20033;-30
2024/01/20 04:43:21;;;;;;;1.90;1.70;;;;;;;17.10;33.54;97560.00;10364216;28;20044;-31
2024/01/20 04:48:21;;;;;;;2.00;1.43;;;;;;;16.95;33.98;97539.47;10363213;28;20034;-31
2024/01/20 04:53:22;;;;;;;2.75;1.40;;;;;;;17.05;34.41;97562.44;10364058;28;20037;-30
2024/01/20 04:58:22;;;;;;;1.83;1.38;;;;;;;17.04;34.58;97570.00;10363637;28;20458;-30
2024/01/20 05:03:23;;;;;;;2.37;1.53;;;;;;;17.07;34.12;97585.25;10360854;28;20033;-32
2024/01/20 05:08:23;;;;;;;3.00;1.60;;;;;;;17.08;33.74;97586.97;10363373;28;20034;-30
2024/01/20 05:13:25;;;;;;;2.03;1.80;;;;;;;17.07;33.29;97598.75;10363021;28;20034;-31
2024/01/20 05:18:25;;;;;;;2.25;1.17;;;;;;;17.08;32.88;97592.03;10362468;28;20044;-31
2024/01/20 05:23:25;;;;;;;1.87;1.67;;;;;;;17.09;32.45;97596.25;10359751;28;20036;-31
2024/01/20 05:28:26;;;;;;;1.93;1.30;;;;;;;17.09;33.11;97599.63;10362421;28;20815;-31
2024/01/20 05:33:26;;;;;;;2.23;1.60;;;;;;;17.12;32.87;97598.84;10360337;28;20046;-31
2024/01/20 05:38:26;;;;;;;2.53;1.20;;;;;;;17.11;33.11;97605.59;10362180;28;20036;-30
2024/01/20 05:43:27;;;;;;;1.87;1.40;;;;;;;17.10;33.43;97610.59;10362636;28;20045;-31
2024/01/20 05:48:27;;;;;;;2.20;1.53;;;;;;;17.08;32.53;97614.78;10361146;28;20044;-32
2024/01/20 05:53:30;;;;;;;2.13;1.57;;;;;;;17.10;32.28;97618.19;10361539;28;20053;-30
2024/01/20 05:58:31;;;;;;;2.90;1.60;;;;;;;17.07;32.94;97628.28;10360655;28;20033;-30
2024/01/20 06:03:31;;;;;;;2.50;1.60;;;;;;;17.07;32.64;97620.69;10357005;28;20022;-29
2024/01/20 06:08:32;;;;;;;2.20;1.85;;;;;;;17.07;31.46;97639.22;10354025;28;20029;-31
2024/01/20 06:13:32;;;;;;;1.70;1.30;;;;;;;17.04;31.86;97630.72;10360266;28;20064;-30
2024/01/20 06:18:33;;;;;;;4.00;1.30;;;;;;;17.02;31.84;97622.25;10358406;28;20445;-31
2024/01/20 06:23:33;;;;;;;4.18;1.90;;;;;;;17.01;31.79;97621.41;10356417;28;20297;-31
2024/01/20 06:28:34;;;;;;;2.88;1.67;;;;;;;17.03;32.16;97621.44;10360870;28;20036;-30
2024/01/20 06:33:34;;;;;;;2.07;1.67;;;;;;;16.99;31.42;97609.56;10350902;28;20038;-30
2024/01/20 06:38:34;;;;;;;2.97;1.65;;;;;;;17.03;29.95;97623.97;10358608;28;20419;-31
2024/01/20 06:43:35;;;;;;;3.13;2.33;;;;;;;16.92;29.49;97611.09;10359267;28;20037;-31
2024/01/20 06:48:35;;;;;;;3.15;2.00;;;;;;;16.88;28.72;97616.06;10359135;28;20029;-31
2024/01/20 06:53:36;;;;;;;3.15;2.08;;;;;;;16.90;28.72;97616.97;10361056;28;20673;-30
2024/01/20 06:58:36;;;;;;;2.90;2.13;;;;;;;16.89;28.59;97615.25;10359723;28;20042;-30
2024/01/20 07:03:37;;;;;;;2.97;2.27;;;;;;;16.92;28.67;97621.22;10359083;28;20042;-30
2024/01/20 07:08:37;;;;;;;2.33;2.10;;;;;;;16.92;28.30;97631.31;10363190;28;20026;-31
2024/01/20 07:13:38;;;;;;;2.70;2.00;;;;;;;16.94;28.54;97628.84;10367427;28;20057;-30
2024/01/20 07:18:39;;;;;;;2.60;1.90;;;;;;;16.96;28.52;97629.72;10366030;28;20053;-30
2024/01/20 07:23:39;;;;;;;2.10;1.83;;;;;;;17.00;28.54;97634.88;10363280;28;20038;-30
2024/01/20 07:28:40;;;;;;;3.33;1.90;;;;;;;17.06;28.57;97624.03;10366539;28;20026;-31
2024/01/20 07:33:41;;;;;;;3.08;1.80;;;;;;;17.01;28.08;97653.44;10365858;28;20042;-30
2024/01/20 07:38:41;;;;;;;2.38;1.98;;;;;;;16.98;27.74;97656.75;10355759;28;20071;-31
2024/01/20 07:43:41;;;;;;;2.87;1.90;;;;;;;17.07;28.33;97671.28;10360826;28;20044;-30
2024/01/20 07:48:43;;;;;;;3.63;1.90;;;;;;;17.02;28.37;97682.97;10360627;28;20030;-31
2024/01/20 07:53:43;;;;;;;2.30;1.75;;;;;;;17.13;28.02;97681.50;10364127;28;20551;-30
2024/01/20 07:58:43;;;;;;;2.90;1.97;;;;;;;17.16;28.58;97687.47;10362665;28;20022;-31
2024/01/20 08:03:44;;;;;;;3.60;2.20;;;;;;;17.17;28.61;97698.47;10363419;28;20084;-30
2024/01/20 08:08:45;;;;;;;3.70;2.00;;;;;;;16.89;29.60;97717.28;10364741;28;20308;-31
2024/01/20 08:13:45;;;;;;;4.80;1.83;;;;;;;17.02;29.77;97710.78;10364650;28;20417;-31
2024/01/20 08:18:46;;;;;;;3.87;1.93;;;;;;;16.99;29.25;97710.75;10363612;28;20387;-31
2024/01/20 08:23:46;;;;;;;3.72;2.10;;;;;;;17.02;29.02;97723.44;10365076;28;20498;-30
2024/01/20 08:28:47;;;;;;;2.80;2.00;;;;;;;17.01;28.83;97729.34;10364457;28;20041;-30
2024/01/20 08:33:47;;;;;;;2.45;1.77;;;;;;;17.00;28.34;97745.34;10350873;28;20148;-30
2024/01/20 08:38:47;;;;;;;1.97;1.77;;;;;;;16.83;28.52;97761.81;10356303;28;20656;-30
2024/01/20 08:43:48;;;;;;;2.27;1.80;;;;;;;16.94;28.77;97755.31;10360657;28;20379;-30
2024/01/20 08:48:48;;;;;;;3.17;2.00;;;;;;;16.99;30.16;97753.75;10362102;28;20025;-31
2024/01/20 08:53:49;;;;;;;2.23;1.57;;;;;;;17.02;29.69;97741.16;10360542;28;20339;-31
2024/01/20 08:58:49;;;;;;;4.00;1.92;;;;;;;17.04;32.02;97752.16;10363235;28;20022;-30
2024/01/20 09:03:49;;;;;;;2.93;1.70;;;;;;;17.04;30.09;97765.69;10361049;28;20046;-30
2024/01/20 09:08:50;;;;;;;2.07;1.57;;;;;;;17.06;31.33;97780.91;10361568;28;20355;-31
2024/01/20 09:13:51;;;;;;;2.83;1.83;;;;;;;17.05;29.30;97794.34;10362811;28;20038;-30
2024/01/20 09:18:52;;;;;;;3.17;2.33;;;;;;;16.94;29.46;97801.72;10361504;28;20041;-30
2024/01/20 09:23:52;;;;;;;2.28;1.95;;;;;;;16.84;29.34;97809.03;10358244;28;20050;-30
2024/01/20 09:28:52;;;;;;;5.80;2.37;;;;;;;16.66;29.46;97818.72;10362713;28;20037;-30
2024/01/20 09:33:53;;;;;;;2.70;2.17;;;;;;;16.81;28.80;97819.09;10360198;28;20696;-30
2024/01/20 09:38:53;;;;;;;4.28;2.42;;;;;;;16.76;28.83;97810.53;10361660;28;20105;-31
2024/01/20 09:43:54;;;;;;;5.23;2.60;;;;;;;16.73;28.70;97805.41;10361128;28;20048;-31
2024/01/20 09:48:56;;;;;;;3.27;2.47;;;;;;;16.57;28.33;97803.31;10362222;28;20893;-31
2024/01/20 09:54:00;;;;;;;3.65;2.45;;;;;;;16.51;28.53;97798.13;10362583;28;20640;-31
2024/01/20 09:59:01;;;;;;;2.53;2.30;;;;;;;16.75;28.14;97793.66;10363078;28;20076;-31
2024/01/20 10:04:03;;;;;;;4.13;3.00;;;;;;;16.64;27.81;97784.97;10362008;28;20046;-30
2024/01/20 10:09:05;;;;;;;4.07;2.90;;;;;;;16.81;27.48;97774.41;10361483;28;20026;-29
2024/01/20 10:14:05;;;;;;;5.00;2.92;;;;;;;16.92;28.75;97767.06;10361503;28;20034;-31
2024/01/20 10:19:06;;;;;;;5.25;4.05;;;;;;;17.07;29.44;97767.44;10361868;28;20030;-30
2024/01/20 10:24:09;;;;;;;7.60;5.70;;;;;;;17.13;29.14;97772.59;10357045;28;20030;-31
2024/01/20 10:29:10;;;;;;;6.68;5.93;;;;;;;17.15;30.86;97764.22;10361860;28;20296;-31
2024/01/20 10:34:10;;;;;;;7.68;6.07;;;;;;;17.13;31.17;97765.00;10358305;28;20042;-30
2024/01/20 10:39:17;;;;;;;6.60;6.00;;;;;;;17.15;31.11;97761.69;10361665;28;20486;-30
2024/01/20 10:44:20;;;;;;;5.78;5.28;;;;;;;17.17;32.22;97759.22;10364723;28;20172;-31
2024/01/20 10:49:22;;;;;;;7.28;5.25;;;;;;;17.18;32.08;97753.31;10368448;28;20029;-30
2024/01/20 10:54:22;;;;;;;6.65;5.75;;;;;;;17.21;31.39;97766.03;10368356;28;20129;-30
2024/01/20 10:59:27;;;;;;;5.53;5.03;;;;;;;17.22;29.70;97772.78;10368464;28;20036;-31
2024/01/20 11:04:35;;;;;;;5.85;4.90;;;;;;;17.23;29.48;97779.59;10367763;28;20343;-30
2024/01/20 11:09:36;;;;;;;6.25;5.15;;;;;;;17.22;29.48;97782.91;10367092;28;20030;-30
2024/01/20 11:14:36;;;;;;;6.72;4.55;;;;;;;17.22;29.17;97780.38;10367061;28;20048;-30
2024/01/20 11:19:37;;;;;;;7.63;4.72;;;;;;;17.19;29.81;97796.38;10368169;28;20030;-31
2024/01/20 11:24:40;;;;;;;4.68;4.18;;;;;;;17.17;29.29;97789.56;10366668;28;20060;-30
2024/01/20 11:29:41;;;;;;;5.47;4.72;;;;;;;17.11;29.67;97781.84;10362382;28;20468;-31
2024/01/20 11:34:41;;;;;;;5.23;4.40;;;;;;;17.10;30.15;97772.53;10363864;28;20038;-31
2024/01/20 11:39:41;;;;;;;5.73;4.17;;;;;;;17.13;29.12;97763.34;10360994;28;20018;-30
2024/01/20 11:44:42;;;;;;;6.97;4.40;;;;;;;17.06;29.41;97750.53;10361230;28;20293;-30
2024/01/20 11:49:43;;;;;;;6.97;4.55;;;;;;;17.03;29.09;97747.94;10362603;28;20561;-30
2024/01/20 11:54:44;;;;;;;5.28;4.75;;;;;;;17.05;28.64;97733.63;10361829;28;20030;-31
2024/01/20 11:59:44;;;;;;;5.03;4.53;;;;;;;17.10;29.05;97722.81;10365250;28;20055;-32
2024/01/20 12:04:44;;;;;;;7.27;4.63;;;;;;;17.16;28.56;97717.00;10365489;28;20030;-31
2024/01/20 12:09:46;;;;;;;6.03;4.93;;;;;;;17.16;30.32;97696.78;10355276;28;20064;-31
2024/01/20 12:14:46;;;;;;;7.45;4.80;;;;;;;17.17;29.23;97690.88;10362609;28;20038;-31
2024/01/20 12:19:46;;;;;;;10.82;5.43;;;;;;;17.19;28.66;97684.16;10361998;28;20029;-32
2024/01/20 12:24:48;;;;;;;7.50;5.70;;;;;;;17.20;29.10;97669.03;10362373;28;20044;-31
2024/01/20 12:29:48;;;;;;;9.20;6.47;;;;;;;17.15;29.15;97659.63;10356478;28;20125;-30
2024/01/20 12:34:49;;;;;;;9.07;5.07;;;;;;;17.19;29.11;97674.03;10364283;28;20523;-30
2024/01/20 12:39:50;;;;;;;9.32;5.05;;;;;;;17.10;30.25;97678.94;10363985;28;20057;-31
2024/01/20 12:44:50;;;;;;;10.70;4.97;;;;;;;17.18;29.53;97674.88;10364228;28;20041;-30
2024/01/20 12:49:52;;;;;;;8.98;4.57;;;;;;;17.18;29.31;97659.69;10363716;28;20120;-30
2024/01/20 12:54:57;;;;;;;5.82;4.53;;;;;;;17.16;29.43;97654.59;10364143;28;20042;-31
2024/01/20 12:59:57;;;;;;;6.78;4.65;;;;;;;17.17;29.46;97652.94;10363078;28;20049;-30
2024/01/20 13:04:58;;;;;;;5.73;4.30;;;;;;;17.13;29.77;97644.41;10356441;28;20037;-31
2024/01/20 13:09:58;;;;;;;5.60;4.77;;;;;;;17.16;29.83;97641.09;10353455;28;20037;-31
2024/01/20 13:14:58;;;;;;;7.50;4.77;;;;;;;17.17;29.47;97635.22;10338728;28;20050;-30
2024/01/20 13:19:59;;;;;;;4.53;4.00;;;;;;;17.16;29.49;97644.47;10354571;28;20037;-30
2024/01/20 13:24:59;;;;;;;4.67;4.20;;;;;;;17.15;29.41;97655.41;10359002;28;20289;-31
2024/01/20 13:29:59;;;;;;;5.97;4.73;;;;;;;17.13;29.89;97661.25;10353179;28;20061;-30
2024/01/20 13:35:00;;;;;;;14.70;7.77;;;;;;;16.98;33.25;97671.09;10355882;28;20297;-31
2024/01/20 13:40:04;;;;;;;7.22;5.60;;;;;;;17.14;30.08;97657.94;10351440;28;21027;-31
2024/01/20 13:45:05;;;;;;;5.13;4.38;;;;;;;17.17;30.29;97648.69;10355354;28;20120;-31
2024/01/20 13:50:06;;;;;;;8.13;5.18;;;;;;;17.24;29.75;97657.28;10348933;28;20034;-31
2024/01/20 13:55:07;;;;;;;8.82;5.13;;;;;;;17.22;29.75;97649.66;10356079;28;20049;-30
2024/01/20 14:00:11;;;;;;;7.32;4.55;;;;;;;17.24;30.11;97652.22;10353998;28;20037;-30
2024/01/20 14:05:13;;;;;;;6.63;5.15;;;;;;;17.22;29.71;97648.78;10349591;28;20045;-31
2024/01/20 14:10:13;;;;;;;9.10;5.13;;;;;;;17.20;30.61;97661.44;10334345;28;20026;-30
2024/01/20 14:15:14;;;;;;;8.50;4.67;;;;;;;17.20;31.33;97661.44;10349751;28;20041;-30
2024/01/20 14:20:14;;;;;;;6.97;5.47;;;;;;;17.21;30.13;97654.69;10354871;28;20291;-30
2024/01/20 14:25:16;;;;;;;6.57;5.40;;;;;;;17.16;33.83;97652.06;10350359;28;20034;-30
2024/01/20 14:30:17;;;;;;;13.05;10.70;;;;;;;16.72;30.71;97646.94;10347448;28;22648;-33
2024/01/20 14:35:17;;;;;;;18.75;6.80;;;;;;;16.93;31.45;97662.53;10351756;28;20045;-32
2024/01/20 14:40:18;;;;;;;10.27;7.32;;;;;;;17.06;30.94;97659.47;10347943;28;20030;-32
2024/01/20 14:45:21;;;;;;;7.80;6.22;;;;;;;17.10;30.23;97667.16;10352805;28;20045;-32
2024/01/20 14:50:21;;;;;;;14.48;7.10;;;;;;;17.13;31.46;97646.94;10359603;28;20494;-32
2024/01/20 14:55:21;;;;;;;12.23;7.00;;;;;;;17.22;33.44;97641.19;10350892;28;20030;-31
2024/01/20 15:00:22;;;;;;;8.32;6.32;;;;;;;17.17;31.20;97622.56;10350293;28;20131;-31
2024/01/20 15:05:23;;;;;;;11.00;6.55;;;;;;;17.33;31.68;97629.63;10360689;28;20520;-31
2024/01/20 15:10:23;;;;;;;9.57;6.27;;;;;;;17.37;31.64;97626.34;10371496;28;20053;-31
2024/01/20 15:15:23;;;;;;;8.57;5.60;;;;;;;17.38;32.65;97618.78;10357422;28;20034;-31
2024/01/20 15:20:24;;;;;;;7.88;5.65;;;;;;;17.38;33.25;97621.31;10359035;28;20108;-32
2024/01/20 15:25:24;;;;;;;10.87;5.70;;;;;;;17.37;34.62;97621.28;10358882;28;20030;-32
2024/01/20 15:30:25;;;;;;;9.30;5.43;;;;;;;17.40;33.35;97622.19;10363053;28;20366;-31
2024/01/20 15:35:26;;;;;;;6.18;5.25;;;;;;;17.44;32.98;97623.09;10367335;28;20765;-32
2024/01/20 15:40:26;;;;;;;7.72;4.70;;;;;;;17.40;33.13;97626.41;10365553;28;20127;-31
2024/01/20 15:45:27;;;;;;;9.80;5.10;;;;;;;17.49;34.03;97640.09;10364919;28;20123;-32
2024/01/20 15:50:30;;;;;;;7.20;4.80;;;;;;;17.44;33.76;97649.28;10392137;28;20069;-32
2024/01/20 15:55:30;;;;;;;7.07;4.97;;;;;;;17.50;34.10;97673.88;10365355;28;20508;-32
2024/01/20 16:00:30;;;;;;;6.23;5.00;;;;;;;17.50;33.44;97684.81;10357705;28;20044;-31
2024/01/20 16:05:31;;;;;;;6.13;4.53;;;;;;;17.79;34.92;97703.97;10364967;28;20103;-31
2024/01/20 16:10:31;;;;;;;8.20;4.87;;;;;;;17.59;34.83;97712.84;10364161;28;20042;-31
2024/01/20 16:15:32;;;;;;;10.83;4.93;;;;;;;17.48;33.42;97700.84;10363879;28;20030;-32
2024/01/20 16:20:33;;;;;;;11.25;4.88;;;;;;;17.64;34.38;97725.59;10363831;28;20034;-32
2024/01/20 16:25:33;;;;;;;10.10;4.40;;;;;;;17.77;36.92;97730.09;10362771;28;20026;-32
2024/01/20 16:30:34;;;;;;;13.93;6.37;;;;;;;17.70;36.62;97730.78;10356774;28;20041;-31
2024/01/20 16:35:34;;;;;;;11.70;5.15;;;;;;;17.73;37.12;97720.75;10357002;28;20297;-29
2024/01/20 16:40:37;;;;;;;10.93;5.03;;;;;;;17.88;38.69;97718.47;10363162;28;20490;-30
2024/01/20 16:45:37;;;;;;;8.02;5.78;;;;;;;17.94;40.33;97719.44;10362716;28;20041;-30
2024/01/20 16:50:37;;;;;;;13.80;5.13;;;;;;;17.93;40.38;97710.13;10363802;28;20037;-31
2024/01/20 16:55:38;;;;;;;10.00;5.37;;;;;;;17.99;39.75;97711.94;10363588;28;20617;-31
2024/01/20 17:00:38;;;;;;;11.40;4.90;;;;;;;17.91;37.40;97716.84;10362474;28;20044;-32
2024/01/20 17:05:41;;;;;;;8.00;4.03;;;;;;;17.89;36.96;97710.03;10363450;28;20084;-33
2024/01/20 17:10:41;;;;;;;7.72;5.35;;;;;;;17.86;37.18;97712.53;10362330;28;20557;-31
2024/01/20 17:15:42;;;;;;;9.60;4.20;;;;;;;18.34;37.75;97710.88;10361207;28;20038;-32
2024/01/20 17:20:42;;;;;;;11.30;4.90;;;;;;;17.98;37.28;97705.16;10355676;28;20036;-31
2024/01/20 17:25:43;;;;;;;8.73;4.53;;;;;;;17.88;38.20;97705.78;10362280;28;20117;-32
2024/01/20 17:30:43;;;;;;;10.25;4.30;;;;;;;17.84;38.11;97691.38;10360143;28;20038;-33
2024/01/20 17:35:44;;;;;;;7.00;4.27;;;;;;;17.85;36.72;97688.88;10362916;28;20045;-32
2024/01/20 17:40:44;;;;;;;5.97;3.53;;;;;;;17.84;36.63;97678.72;10362164;28;20128;-31
2024/01/20 17:45:50;;;;;;;8.93;4.45;;;;;;;17.82;36.65;97680.38;10361660;28;20957;-31
2024/01/20 17:50:51;;;;;;;11.90;4.20;;;;;;;17.81;36.44;97681.19;10361445;28;20030;-31
2024/01/20 17:55:52;;;;;;;7.72;4.38;;;;;;;17.81;36.42;97688.78;10361328;28;20049;-31
2024/01/20 18:00:52;;;;;;;9.57;4.60;;;;;;;17.81;36.41;97701.44;10361554;28;20056;-31
2024/01/20 18:05:53;;;;;;;7.67;4.17;;;;;;;17.83;36.32;97707.41;10361716;28;20161;-34
2024/01/20 18:10:54;;;;;;;7.20;4.37;;;;;;;17.82;36.29;97710.78;10361021;28;20034;-30
2024/01/20 18:15:54;;;;;;;6.88;4.55;;;;;;;17.84;36.47;97731.91;10361145;28;20040;-31
2024/01/20 18:20:54;;;;;;;5.83;4.57;;;;;;;17.82;36.37;97725.97;10361523;28;20026;-31
2024/01/20 18:25:55;;;;;;;6.83;3.83;;;;;;;17.79;36.17;97734.38;10360826;28;20034;-32
2024/01/20 18:30:55;;;;;;;8.27;4.00;;;;;;;17.75;36.21;97724.16;10360797;28;20044;-33
2024/01/20 18:35:56;;;;;;;5.57;4.38;;;;;;;17.76;36.20;97708.97;10361509;28;20525;-33
2024/01/20 18:40:56;;;;;;;6.70;4.33;;;;;;;17.79;36.05;97718.28;10361295;28;20038;-31
2024/01/20 18:45:57;;;;;;;9.02;4.88;;;;;;;17.79;36.50;97713.22;10359925;28;20041;-32
2024/01/20 18:50:57;;;;;;;11.37;4.97;;;;;;;17.82;36.65;97710.78;10361321;28;20077;-32
2024/01/20 18:55:58;;;;;;;5.78;5.00;;;;;;;17.84;36.19;97712.47;10359578;28;20431;-33
2024/01/20 19:00:58;;;;;;;7.87;4.07;;;;;;;17.85;36.38;97705.75;10359822;28;20045;-32
2024/01/20 19:05:58;;;;;;;6.63;5.17;;;;;;;17.86;36.85;97705.78;10364922;28;20084;-32
2024/01/20 19:10:59;;;;;;;7.53;5.53;;;;;;;17.86;36.97;97699.84;10362154;28;20041;-32
2024/01/20 19:16:01;;;;;;;9.77;5.70;;;;;;;17.83;37.13;97700.66;10366967;28;20051;-32
2024/01/20 19:21:01;;;;;;;13.38;10.02;;;;;;;17.62;35.83;97687.59;10367367;28;20121;-32
2024/01/20 19:26:02;;;;;;;14.80;12.00;;;;;;;17.33;34.67;97680.25;10365790;28;20413;-30
2024/01/20 19:31:02;;;;;;;9.75;7.65;;;;;;;17.59;36.13;97679.09;10364914;28;20494;-32
2024/01/20 19:36:03;;;;;;;10.20;7.00;;;;;;;17.61;37.68;97667.31;10364934;28;20030;-32
2024/01/20 19:41:03;;;;;;;9.02;6.55;;;;;;;17.73;35.81;97678.50;10364115;28;20665;-30
2024/01/20 19:46:04;;;;;;;8.43;6.00;;;;;;;17.77;35.69;97666.75;10358505;28;20586;-33
2024/01/20 19:51:07;;;;;;;7.65;5.65;;;;;;;17.76;36.43;97681.09;10365780;28;20034;-31
2024/01/20 19:56:08;;;;;;;9.00;6.03;;;;;;;17.79;36.63;97683.69;10365420;28;20457;-32
2024/01/20 20:01:08;;;;;;;14.15;6.20;;;;;;;17.75;36.57;97686.16;10365809;28;20049;-31
2024/01/20 20:06:09;;;;;;;7.60;5.43;;;;;;;17.78;36.39;97691.25;10367274;28;20121;-32
2024/01/20 20:11:09;;;;;;;6.57;5.43;;;;;;;17.81;36.68;97686.25;10366425;28;20061;-33
2024/01/20 20:16:09;;;;;;;9.00;5.20;;;;;;;17.74;42.43;97690.34;10364473;28;20034;-33
2024/01/20 20:21:16;;;;;;;6.10;5.50;;;;;;;17.75;41.26;97691.22;10364557;28;20030;-33
2024/01/20 20:26:16;;;;;;;10.05;5.90;;;;;;;17.83;39.59;97697.28;10360314;28;20045;-33
2024/01/20 20:31:18;;;;;;;8.50;5.83;;;;;;;17.86;39.21;97702.38;10357434;28;20091;-32
2024/01/20 20:36:19;;;;;;;8.52;6.00;;;;;;;17.88;38.62;97698.19;10357710;28;20031;-33
2024/01/20 20:41:20;;;;;;;10.13;7.68;;;;;;;17.79;41.22;97690.44;10357806;28;20489;-33
2024/01/20 20:46:20;;;;;;;12.02;6.65;;;;;;;17.73;38.23;97683.59;10360279;28;20034;-31
2024/01/20 20:51:21;;;;;;;7.80;6.70;;;;;;;17.65;39.35;97680.06;10361463;28;20041;-34
2024/01/20 20:56:21;;;;;;;10.00;6.77;;;;;;;17.66;40.85;97686.00;10360827;28;20060;-32
2024/01/20 21:01:22;;;;;;;13.60;6.68;;;;;;;17.66;41.40;97688.53;10359018;28;20045;-32
2024/01/20 21:06:23;;;;;;;11.10;7.95;;;;;;;17.65;41.82;97681.75;10360946;28;20042;-32
2024/01/20 21:11:23;;;;;;;9.43;7.10;;;;;;;17.66;42.38;97680.94;10359914;28;20049;-30
2024/01/20 21:16:25;;;;;;;10.43;8.03;;;;;;;17.66;41.64;97673.31;10359416;28;20038;-31
2024/01/20 21:21:26;;;;;;;9.50;6.70;;;;;;;17.66;42.34;97666.56;10359732;28;20036;-33
2024/01/20 21:26:26;;;;;;;7.90;6.17;;;;;;;17.66;41.83;97661.50;10358054;28;20704;-32
2024/01/20 21:31:27;;;;;;;8.23;6.70;;;;;;;17.66;42.28;97655.59;10357994;28;20041;-32
2024/01/20 21:36:27;;;;;;;7.38;6.28;;;;;;;17.64;42.19;97660.63;10359259;28;20034;-33
2024/01/20 21:41:27;;;;;;;9.57;7.17;;;;;;;17.61;42.17;97667.31;10356078;28;20513;-33
2024/01/20 21:46:28;;;;;;;11.03;6.83;;;;;;;17.58;42.33;97667.25;10357827;28;20309;-32
2024/01/20 21:51:28;;;;;;;6.97;5.30;;;;;;;17.54;43.29;97665.47;10358923;28;20445;-32
2024/01/20 21:56:28;;;;;;;7.43;5.83;;;;;;;17.50;43.22;97658.69;10358261;28;20029;-32
2024/01/20 22:01:34;;;;;;;7.87;5.50;;;;;;;17.51;43.38;97660.38;10357649;28;20779;-31
2024/01/20 22:06:34;;;;;;;8.00;6.18;;;;;;;17.48;42.93;97668.75;10358162;28;20099;-33
2024/01/20 22:11:34;;;;;;;9.43;5.80;;;;;;;17.46;41.59;97667.03;10356941;28;20894;-34
2024/01/20 22:16:35;;;;;;;6.47;5.00;;;;;;;17.49;41.09;97685.66;10357024;28;20624;-33
2024/01/20 22:21:38;;;;;;;6.43;5.33;;;;;;;17.53;40.73;97696.69;10359112;28;20041;-32
2024/01/20 22:26:39;;;;;;;6.57;5.13;;;;;;;17.50;41.50;97694.13;10355732;28;20124;-31
2024/01/20 22:31:39;;;;;;;6.10;5.50;;;;;;;17.49;42.43;97707.59;10358839;28;20060;-32
2024/01/20 22:36:39;;;;;;;6.33;4.63;;;;;;;17.47;42.46;97704.16;10358088;28;20311;-32
2024/01/20 22:41:40;;;;;;;6.30;4.90;;;;;;;17.46;44.24;97705.00;10366680;28;20076;-32
2024/01/20 22:46:40;;;;;;;5.30;4.80;;;;;;;17.44;44.92;97691.47;10365108;28;20038;-33
2024/01/20 22:51:40;;;;;;;5.47;4.43;;;;;;;17.42;45.02;97690.59;10369316;28;20338;-33
2024/01/20 22:56:41;;;;;;;9.03;4.53;;;;;;;17.39;44.61;97683.78;10368833;28;20041;-33
2024/01/20 23:01:43;;;;;;;5.30;4.27;;;;;;;17.37;44.50;97672.78;10368077;28;20040;-34
2024/01/20 23:06:45;;;;;;;5.70;4.63;;;;;;;17.36;44.68;97660.09;10369004;28;20355;-32
2024/01/20 23:11:45;;;;;;;5.65;4.70;;;;;;;17.34;44.75;97636.38;10367456;28;20112;-34
2024/01/20 23:16:46;;;;;;;4.97;3.83;;;;;;;17.34;44.32;97627.09;10367699;28;20038;-34